メインページ
METAR-TAF:

METAR-TAF

空港 :

ウィニペグ, マニトバ州, カナダ

ウィニペグ・ジェームス・アームストロング・リチャードソン国際空港

緯度: 49-54N, 経度: 097-14W, 海抜: 239m

現時点の気象観測

当レポートは48分前の10:20(UTC)に作成
西の風 17kt
気温 13°C
湿度 94%
気圧 995 hPa
視程: 24.1km
高度4200ftの千切れ雲あり
高度8200ftの曇り
弱いにわか雨

METAR: CYWG 201020Z 27017KT 15SM -SHRA BKN042 OVC082 13/12 A2938 RMK SC5AC3 CVCTV CLD EMBD SLP954 DENSITY ALT 1400FT

時間: 06:08 (11:08 UTC)

予報

当レポートは1時間3分前の10:05(UTC)に作成
予報は20日の 10時(UTC)から 21日の 06時(UTC)まで有効
西の風 15kt、最大25ktの突風を伴う
視程: 10km
高度600ftの雲はほとんどない
高度4000ftの雲は散在している
高度17000ftの曇り
20日の 10時(UTC)から 20日の 12時(UTC)まで一時的に
視程: 10km
高度600ftの千切れ雲あり
高度4000ftの曇り
弱いにわか雨
20日の 1200時(UTC)から
西/南西の風 15kt、最大25ktの突風を伴う
視程: 10km
高度6000ftの雲は散在している
高度14000ftの曇り
20日の 12時(UTC)から 20日の 16時(UTC)まで一時的に
視程: 10km
高度6000ftの曇り
弱いにわか雨
20日の 1600時(UTC)から
西/南西の風 20kt、最大30ktの突風を伴う
視程: 10km
高度2000ftの雲はほとんどない
20日の 2000時(UTC)から
南/南西の風 15kt、最大25ktの突風を伴う
視程: 10km
高度8000ftの雲は散在している

TAF: CYWG 201005Z 2010/2106 26015G25KT P6SM FEW006 SCT040 OVC170 TEMPO 2010/2012 P6SM -SHRA BKN006 OVC040 FM201200 25015G25KT P6SM SCT060 OVC140 TEMPO 2012/2016 P6SM -SHRA OVC060 FM201600 24020G30KT P6SM FEW020 FM202000 20015G25KT P6SM SCT080 RMK NXT FCST BY 201200Z

4,000以上の空港の気象観測と天気予報(METAR報とTAF報)

利用可能な観測所は地図上に黄色い丸と赤い丸で示す。

丸の上にカーソルを重ねると観測所名を参照できる。

次にクリックすると気象観測と天気予報を参照できる。

マップの切り替え:黒色「×」印の緑ボタンをクリックして拡大、「-」印の緑ボタンをクリックして縮小、緑色の三角印をクリックして隣りの地図に切り替え


METAR-TAF: